Time;durP1;ratioP1;P1;durP2;ratioP2;P2;SDS_P1;SDS_P2;PMS_P1;PMS_P2;Temp;Humidity;BMP_temperature;BMP_pressure;BME280_temperature;BME280_humidity;BME280_pressure;Samples;Min_cycle;Max_cycle;Signal;HPM_P1;HPM_P2
2023/04/16 12:14:49;;;;;;;9.73;6.43;;;;;;;10.51;66.99;101387.16;2127527;27;20225;-84
2023/04/16 12:15:55;;;;;;;10.32;6.50;;;;;;;10.38;66.23;101388.41;2120057;27;20227;-78
2023/04/16 12:17:21;;;;;;;12.05;7.10;;;;;;;10.49;66.74;101377.72;2120896;27;20938;-71
2023/04/16 12:18:26;;;;;;;12.20;6.35;;;;;;;10.42;66.58;101384.13;2101967;28;20216;-77
2023/04/16 12:19:28;;;;;;;11.75;6.38;;;;;;;10.45;66.61;101377.44;2087258;28;20067;-85
2023/04/16 12:20:40;;;;;;;11.30;6.63;;;;;;;10.52;65.63;101393.34;2086835;28;20156;-73
2023/04/16 12:21:44;;;;;;;11.32;6.78;;;;;;;10.40;65.83;101385.47;2097143;28;20033;-81
2023/04/16 12:22:51;;;;;;;9.70;6.15;;;;;;;10.21;66.65;101393.06;2105841;27;20319;-82
2023/04/16 12:23:55;;;;;;;14.57;6.80;;;;;;;10.11;66.73;101387.59;2111076;28;20121;-81
2023/04/16 12:25:06;;;;;;;10.93;7.28;;;;;;;9.93;67.65;101383.41;2112353;27;20143;-85
2023/04/16 12:26:14;;;;;;;12.50;6.65;;;;;;;9.92;68.27;101389.84;2110587;28;20871;-87
2023/04/16 12:27:21;;;;;;;11.10;6.32;;;;;;;9.80;67.53;101387.28;2095988;28;20163;-85
2023/04/16 12:28:33;;;;;;;11.77;6.30;;;;;;;9.74;68.39;101393.69;2079282;28;20076;-85
2023/04/16 12:29:37;;;;;;;9.50;6.35;;;;;;;9.69;68.49;101391.75;2092081;28;20024;-84
2023/04/16 12:30:51;;;;;;;9.57;6.10;;;;;;;9.77;69.47;101397.72;2095151;28;21229;-81
2023/04/16 12:31:53;;;;;;;10.60;6.57;;;;;;;9.76;68.56;101391.56;2098908;28;20867;-82
2023/04/16 12:33:17;;;;;;;11.05;6.40;;;;;;;9.68;68.96;101389.34;2111437;28;20048;-83
2023/04/16 12:34:21;;;;;;;10.85;6.30;;;;;;;9.66;68.76;101391.47;2091679;28;20138;-82
2023/04/16 12:35:30;;;;;;;9.52;6.45;;;;;;;9.69;69.24;101390.94;2079373;28;20085;-83
2023/04/16 12:36:32;;;;;;;9.18;5.90;;;;;;;9.75;68.83;101389.94;2088724;28;20859;-83
2023/04/16 12:37:34;;;;;;;10.40;6.80;;;;;;;9.75;69.07;101387.25;2103177;28;20929;-82
2023/04/16 12:38:40;;;;;;;13.82;6.85;;;;;;;9.78;69.11;101394.00;2095383;28;20067;-82
2023/04/16 12:39:42;;;;;;;9.82;6.50;;;;;;;9.68;69.04;101387.47;2094806;28;20045;-78
2023/04/16 12:40:45;;;;;;;12.52;7.60;;;;;;;9.71;68.80;101386.16;2111476;28;20024;-82
2023/04/16 12:41:48;;;;;;;11.15;7.28;;;;;;;9.66;68.51;101391.47;2103360;28;20089;-82
2023/04/16 12:42:50;;;;;;;13.35;7.28;;;;;;;9.50;68.88;101393.16;2086909;28;20037;-83
2023/04/16 12:44:00;;;;;;;11.15;6.45;;;;;;;9.51;69.60;101387.53;2094731;28;20048;-83
2023/04/16 12:45:08;;;;;;;13.50;7.50;;;;;;;9.60;70.10;101393.25;2105939;28;20421;-84
2023/04/16 12:46:10;;;;;;;12.93;6.72;;;;;;;9.45;69.42;101391.22;2094436;28;20044;-81
2023/04/16 12:47:14;;;;;;;9.85;6.55;;;;;;;9.39;69.23;101392.19;2086664;28;20799;-80
2023/04/16 12:48:18;;;;;;;13.32;7.38;;;;;;;9.39;70.00;101397.56;2111656;27;20020;-79
2023/04/16 12:49:20;;;;;;;12.60;7.55;;;;;;;9.41;69.88;101394.66;2119204;27;20127;-81
2023/04/16 12:50:28;;;;;;;9.65;6.65;;;;;;;9.32;70.54;101391.59;2094286;28;20264;-82
2023/04/16 12:51:32;;;;;;;11.43;6.60;;;;;;;9.32;70.15;101399.63;2087505;28;20030;-81
2023/04/16 12:52:34;;;;;;;12.23;7.15;;;;;;;9.35;70.10;101399.13;2117947;27;20107;-81
2023/04/16 12:53:36;;;;;;;10.40;6.20;;;;;;;9.34;70.47;101400.22;2119406;27;20112;-83
2023/04/16 12:54:38;;;;;;;11.75;7.25;;;;;;;9.42;70.45;101396.28;2103092;28;20893;-79
2023/04/16 12:55:44;;;;;;;10.68;6.95;;;;;;;9.34;69.87;101412.81;2111468;27;21074;-74
2023/04/16 12:56:46;;;;;;;11.20;7.20;;;;;;;9.31;69.62;101403.41;2110703;28;21223;-74
2023/04/16 12:57:51;;;;;;;10.85;7.03;;;;;;;9.27;70.36;101403.09;2110957;27;20269;-72
2023/04/16 12:58:56;;;;;;;11.82;7.53;;;;;;;9.27;70.62;101402.28;2110660;28;20855;-73
2023/04/16 13:00:00;;;;;;;11.45;7.82;;;;;;;9.21;69.56;101400.59;2112086;27;20043;-73
2023/04/16 13:01:05;;;;;;;10.20;7.22;;;;;;;9.25;69.82;101402.50;2119546;27;20139;-74
2023/04/16 13:02:07;;;;;;;13.80;7.80;;;;;;;9.38;69.55;101403.22;2110545;28;20040;-73
2023/04/16 13:03:08;;;;;;;11.00;7.05;;;;;;;9.39;69.30;101392.19;2096580;28;20028;-74
2023/04/16 13:04:11;;;;;;;13.75;7.30;;;;;;;9.42;69.72;101410.50;2104869;27;20025;-74
2023/04/16 13:05:17;;;;;;;10.07;7.45;;;;;;;9.42;68.96;101399.75;2111906;27;20024;-73
2023/04/16 13:06:20;;;;;;;10.50;6.50;;;;;;;9.50;69.12;101403.91;2113521;27;20335;-73
2023/04/16 13:07:31;;;;;;;9.45;6.43;;;;;;;9.58;68.72;101405.31;2115115;27;20059;-73
2023/04/16 13:08:45;;;;;;;10.07;6.82;;;;;;;9.48;68.68;101393.38;2113415;27;20247;-74
2023/04/16 13:09:50;;;;;;;11.77;7.13;;;;;;;9.49;69.32;101397.72;2109046;27;20251;-72
2023/04/16 13:10:54;;;;;;;11.10;6.95;;;;;;;9.55;69.21;101403.94;2104261;28;20029;-74
2023/04/16 13:11:58;;;;;;;11.23;6.40;;;;;;;9.72;69.07;101401.19;2104213;27;20032;-74
2023/04/16 13:12:59;;;;;;;10.23;6.97;;;;;;;9.84;68.56;101401.88;2119040;27;20233;-72
2023/04/16 13:14:02;;;;;;;12.43;6.70;;;;;;;9.87;67.69;101414.78;2122886;27;20091;-74
2023/04/16 13:15:07;;;;;;;11.63;7.25;;;;;;;9.67;67.34;101409.19;2103482;28;20056;-73
2023/04/16 13:16:12;;;;;;;12.65;6.97;;;;;;;9.52;66.78;101407.16;2093919;28;20139;-73
2023/04/16 13:17:16;;;;;;;10.45;6.68;;;;;;;9.35;68.10;101393.78;2094235;28;20033;-74
2023/04/16 13:18:21;;;;;;;10.38;6.32;;;;;;;9.47;68.16;101415.94;2102077;28;21318;-74
2023/04/16 13:19:29;;;;;;;11.05;6.30;;;;;;;9.46;67.51;101405.47;2095066;28;20156;-75
2023/04/16 13:20:36;;;;;;;10.93;6.43;;;;;;;9.54;68.12;101410.38;2094725;28;20037;-74
2023/04/16 13:21:38;;;;;;;8.80;5.88;;;;;;;9.65;67.97;101408.63;2093968;28;20867;-74
2023/04/16 13:22:40;;;;;;;11.73;6.38;;;;;;;9.81;68.17;101404.25;2093781;28;20128;-73
2023/04/16 13:23:44;;;;;;;9.80;6.35;;;;;;;9.86;67.20;101417.72;2085669;28;20029;-73
2023/04/16 13:24:46;;;;;;;10.88;6.28;;;;;;;9.90;67.08;101403.53;2094162;28;20925;-73
2023/04/16 13:25:51;;;;;;;8.57;5.95;;;;;;;9.94;66.85;101406.53;2096412;28;20120;-73
2023/04/16 13:26:53;;;;;;;12.60;6.30;;;;;;;9.92;66.95;101409.44;2096480;28;20037;-72
2023/04/16 13:28:00;;;;;;;9.20;5.85;;;;;;;9.90;67.37;101410.78;2096844;28;20083;-72
2023/04/16 13:29:07;;;;;;;12.95;6.50;;;;;;;9.94;66.89;101406.53;2096169;28;21487;-73
2023/04/16 13:30:15;;;;;;;11.35;6.65;;;;;;;9.93;67.44;101405.72;2094521;28;20045;-73
2023/04/16 13:31:20;;;;;;;12.85;6.50;;;;;;;9.97;67.49;101409.50;2087777;28;20049;-73
2023/04/16 13:32:24;;;;;;;11.73;6.80;;;;;;;10.04;66.74;101411.19;2080565;28;20869;-73
2023/04/16 13:33:27;;;;;;;8.05;5.60;;;;;;;10.03;66.50;101413.06;2095613;28;20262;-73
2023/04/16 13:34:33;;;;;;;12.93;6.45;;;;;;;10.04;66.42;101413.88;2087608;28;20220;-73
2023/04/16 13:35:36;;;;;;;14.15;7.13;;;;;;;9.95;66.15;101416.19;2085276;28;20018;-72
2023/04/16 13:36:40;;;;;;;13.07;7.38;;;;;;;9.81;67.00;101409.63;2084242;28;20151;-72
2023/04/16 13:37:41;;;;;;;17.58;9.18;;;;;;;9.73;67.55;101414.34;2084473;28;20064;-73
2023/04/16 13:38:45;;;;;;;12.07;7.90;;;;;;;9.61;68.74;101412.88;2084046;28;20025;-84
2023/04/16 13:39:49;;;;;;;10.60;7.05;;;;;;;9.69;68.33;101417.81;2071137;28;20046;-72
2023/04/16 13:40:54;;;;;;;11.32;6.68;;;;;;;9.86;69.40;101412.34;2072139;28;20030;-72
2023/04/16 13:42:01;;;;;;;9.98;6.47;;;;;;;10.01;68.24;101417.06;2071481;28;20150;-74
2023/04/16 13:43:12;;;;;;;8.70;6.22;;;;;;;9.82;67.53;101425.47;2088211;28;20121;-71
2023/04/16 13:44:19;;;;;;;9.95;6.50;;;;;;;9.63;67.92;101418.81;2096000;28;20029;-72
2023/04/16 13:45:26;;;;;;;11.27;6.40;;;;;;;9.48;68.22;101417.56;2091142;28;20057;-71
2023/04/16 13:46:32;;;;;;;10.88;6.85;;;;;;;9.42;68.52;101423.09;2093254;28;20028;-70
2023/04/16 13:47:35;;;;;;;11.30;5.93;;;;;;;9.39;69.41;101420.91;2087151;28;20053;-70
2023/04/16 13:48:40;;;;;;;9.45;6.10;;;;;;;9.34;68.98;101410.13;2086145;28;20116;-71
2023/04/16 13:49:42;;;;;;;10.07;5.88;;;;;;;9.30;69.40;101420.56;2093966;28;20037;-70
2023/04/16 13:50:44;;;;;;;9.65;5.80;;;;;;;9.27;69.41;101429.13;2095699;28;20069;-70
2023/04/16 13:51:48;;;;;;;9.35;5.53;;;;;;;9.24;70.03;101417.00;2095065;28;20048;-70
2023/04/16 13:52:49;;;;;;;9.75;5.75;;;;;;;9.19;70.09;101416.09;2088088;28;20038;-71
2023/04/16 13:53:55;;;;;;;10.00;5.65;;;;;;;9.14;70.61;101416.03;2094242;28;20103;-71
2023/04/16 13:55:00;;;;;;;10.13;6.15;;;;;;;9.11;71.19;101419.22;2077901;28;20320;-70
2023/04/16 13:56:07;;;;;;;19.80;9.45;;;;;;;9.19;71.42;101416.09;2078455;28;20084;-69
2023/04/16 13:57:09;;;;;;;11.88;6.72;;;;;;;9.30;71.84;101417.88;2088337;28;20061;-70
2023/04/16 13:58:14;;;;;;;9.18;6.43;;;;;;;9.26;70.77;101419.41;2087382;28;20744;-70
2023/04/16 13:59:19;;;;;;;10.50;6.03;;;;;;;9.18;70.60;101414.50;2079863;28;20377;-71
2023/04/16 14:00:20;;;;;;;12.45;7.35;;;;;;;9.17;71.03;101426.28;2087655;28;20025;-69
2023/04/16 14:01:22;;;;;;;7.75;5.28;;;;;;;9.16;71.35;101421.97;2087791;28;20042;-70
2023/04/16 14:02:25;;;;;;;10.02;5.75;;;;;;;9.11;71.14;101419.22;2088479;28;20042;-70
2023/04/16 14:03:27;;;;;;;9.95;5.68;;;;;;;8.90;71.73;101421.63;2096215;28;20071;-69
2023/04/16 14:04:28;;;;;;;10.55;5.88;;;;;;;8.91;72.14;101417.06;2087918;28;20244;-69
2023/04/16 14:05:32;;;;;;;12.95;6.15;;;;;;;8.95;72.47;101412.81;2079705;28;20747;-70
2023/04/16 14:06:36;;;;;;;9.85;6.13;;;;;;;9.03;72.01;101415.91;2080374;28;20137;-70
2023/04/16 14:07:41;;;;;;;8.77;5.85;;;;;;;9.01;72.51;101412.63;2087650;28;20729;-72
2023/04/16 14:08:45;;;;;;;11.68;6.35;;;;;;;8.98;72.56;101418.50;2080218;28;20041;-71
2023/04/16 14:09:48;;;;;;;9.85;5.90;;;;;;;8.97;72.15;101416.06;2079851;28;20104;-70
2023/04/16 14:10:50;;;;;;;8.60;5.63;;;;;;;8.94;72.42;101425.41;2088370;28;20021;-71
2023/04/16 14:11:56;;;;;;;9.40;5.90;;;;;;;8.86;72.06;101415.13;2088257;28;20264;-70
2023/04/16 14:13:07;;;;;;;8.27;5.22;;;;;;;8.83;71.58;101420.97;2089096;28;20040;-71
2023/04/16 14:14:12;;;;;;;9.43;5.80;;;;;;;8.81;71.51;101418.53;2085176;28;20060;-70
2023/04/16 14:15:19;;;;;;;8.38;5.18;;;;;;;8.82;72.21;101413.97;2097320;28;20201;-70
2023/04/16 14:16:23;;;;;;;9.68;5.63;;;;;;;8.72;72.19;101413.81;2105384;28;20195;-70
2023/04/16 14:17:25;;;;;;;10.10;5.68;;;;;;;8.73;72.34;101410.06;2105080;28;20244;-69
2023/04/16 14:18:27;;;;;;;9.43;5.57;;;;;;;8.81;72.17;101423.09;2087749;28;20343;-70
2023/04/16 14:19:33;;;;;;;8.60;5.43;;;;;;;8.85;72.71;101413.47;2087354;28;20845;-69
2023/04/16 14:20:35;;;;;;;8.57;5.90;;;;;;;8.85;73.13;101405.44;2104288;28;20032;-69
2023/04/16 14:21:40;;;;;;;9.15;5.70;;;;;;;8.86;72.68;101417.81;2108312;28;20203;-68
2023/04/16 14:22:45;;;;;;;7.90;5.15;;;;;;;8.93;73.39;101417.63;2104338;28;20353;-69
2023/04/16 14:23:50;;;;;;;9.80;6.00;;;;;;;9.00;72.83;101416.38;2104335;28;20302;-70
2023/04/16 14:24:55;;;;;;;8.43;5.38;;;;;;;8.99;72.96;101419.34;2104877;28;20032;-71
2023/04/16 14:25:57;;;;;;;8.55;5.53;;;;;;;8.88;72.68;101417.56;2095881;28;20067;-70
2023/04/16 14:27:02;;;;;;;7.43;5.00;;;;;;;8.87;73.06;101418.63;2085240;28;20042;-69
2023/04/16 14:28:08;;;;;;;8.63;5.53;;;;;;;8.86;72.92;101422.34;2104813;28;20024;-69
2023/04/16 14:29:09;;;;;;;9.13;6.00;;;;;;;8.84;73.11;101422.59;2095747;28;20319;-70
2023/04/16 14:30:16;;;;;;;8.00;5.75;;;;;;;8.75;72.95;101424.88;2088123;28;20817;-69
2023/04/16 14:31:19;;;;;;;9.70;5.75;;;;;;;8.79;73.55;101427.88;2089720;28;20030;-70
2023/04/16 14:32:26;;;;;;;11.13;6.47;;;;;;;8.69;73.37;101433.09;2096298;28;20640;-68
2023/04/16 14:33:29;;;;;;;8.52;5.63;;;;;;;8.64;73.65;101425.78;2104836;28;20129;-70
2023/04/16 14:34:32;;;;;;;9.55;5.75;;;;;;;8.66;73.66;101425.53;2104639;28;20232;-71
2023/04/16 14:35:36;;;;;;;12.23;6.15;;;;;;;8.61;73.73;101431.63;2104413;28;20131;-72
2023/04/16 14:36:39;;;;;;;11.32;5.70;;;;;;;8.53;73.63;101426.66;2088338;28;20220;-69
2023/04/16 14:37:45;;;;;;;10.38;6.80;;;;;;;8.55;73.64;101424.56;2095467;27;20040;-72
2023/04/16 14:38:51;;;;;;;10.65;6.32;;;;;;;8.61;73.90;101430.78;2119669;27;20030;-71
2023/04/16 14:39:59;;;;;;;11.73;6.25;;;;;;;8.66;73.67;101430.88;2104933;28;20255;-72
2023/04/16 14:41:11;;;;;;;10.15;6.25;;;;;;;8.75;73.40;101432.91;2103998;28;20236;-73
2023/04/16 14:42:15;;;;;;;12.27;7.50;;;;;;;8.84;74.01;101438.69;2085514;28;20767;-72
2023/04/16 14:43:23;;;;;;;11.02;6.35;;;;;;;8.80;73.30;101424.16;2096050;28;20872;-72
2023/04/16 14:44:27;;;;;;;12.25;6.30;;;;;;;8.71;72.63;101430.97;2104722;28;20371;-72
2023/04/16 14:45:31;;;;;;;10.30;5.45;;;;;;;8.75;72.57;101429.44;2096432;28;21211;-71
2023/04/16 14:46:33;;;;;;;11.77;6.90;;;;;;;8.74;73.83;101433.16;2107599;28;20238;-67
2023/04/16 14:47:41;;;;;;;18.05;7.47;;;;;;;8.72;74.88;101436.09;2104605;28;20998;-67
2023/04/16 14:48:48;;;;;;;14.68;7.10;;;;;;;8.76;75.67;101434.56;2115099;27;20237;-71
2023/04/16 14:49:51;;;;;;;9.50;5.78;;;;;;;8.66;74.93;101434.38;2111498;28;20227;-70
2023/04/16 14:50:55;;;;;;;10.50;5.55;;;;;;;8.54;74.36;101434.47;2096422;28;20244;-73
2023/04/16 14:52:00;;;;;;;12.52;6.35;;;;;;;8.40;73.99;101438.50;2096626;28;20025;-70
2023/04/16 14:53:06;;;;;;;11.70;6.40;;;;;;;8.24;74.63;101437.41;2104487;28;21476;-72
2023/04/16 14:54:09;;;;;;;11.25;5.78;;;;;;;8.19;74.91;101436.50;2095474;28;20044;-71
2023/04/16 14:55:10;;;;;;;10.45;5.97;;;;;;;8.22;75.19;101434.16;2087935;28;20209;-71
2023/04/16 14:56:13;;;;;;;11.40;5.95;;;;;;;8.21;75.45;101435.22;2093145;28;20029;-73
2023/04/16 14:57:16;;;;;;;10.02;6.00;;;;;;;8.17;75.62;101433.28;2102775;28;20204;-69
2023/04/16 14:58:18;;;;;;;8.13;5.38;;;;;;;8.12;75.36;101436.66;2094211;28;20252;-70
2023/04/16 14:59:24;;;;;;;8.38;5.32;;;;;;;8.07;75.56;101429.34;2101801;28;20223;-70
2023/04/16 15:00:30;;;;;;;9.00;6.30;;;;;;;8.03;76.01;101438.09;2103716;28;20346;-74
2023/04/16 15:01:38;;;;;;;9.75;5.88;;;;;;;7.98;76.03;101429.97;2097302;28;21085;-74
2023/04/16 15:02:45;;;;;;;11.65;6.22;;;;;;;7.98;76.37;101436.16;2104658;28;21210;-72
2023/04/16 15:03:50;;;;;;;10.25;5.70;;;;;;;7.95;76.07;101431.25;2096558;28;20243;-72
2023/04/16 15:04:54;;;;;;;7.80;5.50;;;;;;;7.93;76.14;101427.19;2097827;28;20036;-71
2023/04/16 15:06:03;;;;;;;9.35;5.68;;;;;;;7.94;76.35;101439.53;2094099;28;20217;-70
2023/04/16 15:07:04;;;;;;;8.27;5.70;;;;;;;7.96;76.48;101434.75;2088158;28;20367;-72
2023/04/16 15:08:11;;;;;;;12.75;6.50;;;;;;;8.04;76.51;101439.69;2104495;28;20215;-72
2023/04/16 15:09:14;;;;;;;8.85;5.10;;;;;;;8.05;76.33;101434.13;2097172;28;20209;-71
2023/04/16 15:10:17;;;;;;;12.70;6.10;;;;;;;8.11;76.29;101435.84;2099100;28;20244;-71
2023/04/16 15:11:22;;;;;;;10.18;6.28;;;;;;;8.12;76.53;101437.47;2080187;28;20241;-72
2023/04/16 15:12:29;;;;;;;;;;;;;;;8.13;76.95;101441.78;2088170;28;21114;-74
2023/04/16 15:13:34;;;;;;;8.98;5.28;;;;;;;8.15;76.63;101438.03;2093859;28;19909;-73
2023/04/16 15:14:39;;;;;;;8.18;4.90;;;;;;;8.12;76.60;101448.16;2087993;28;20303;-73
2023/04/16 15:15:44;;;;;;;9.30;5.40;;;;;;;8.16;76.93;101435.09;2095922;28;20251;-72
2023/04/16 15:16:46;;;;;;;9.45;5.32;;;;;;;8.21;77.07;101445.13;2089535;28;20290;-71
2023/04/16 15:17:49;;;;;;;9.02;5.40;;;;;;;8.08;76.67;101454.25;2079440;28;20197;-69
2023/04/16 15:18:57;;;;;;;9.02;4.53;;;;;;;7.95;76.77;101443.84;2092875;28;20212;-73
2023/04/16 15:19:59;;;;;;;7.25;5.07;;;;;;;7.86;77.29;101454.13;2095363;28;20361;-72
2023/04/16 15:21:00;;;;;;;8.65;5.03;;;;;;;7.86;77.76;101443.41;2087428;28;20336;-70
2023/04/16 15:22:04;;;;;;;7.68;5.07;;;;;;;7.95;77.83;101447.34;2088009;28;20269;-72
2023/04/16 15:23:07;;;;;;;7.78;4.93;;;;;;;8.01;77.45;101449.06;2087101;28;20323;-69
2023/04/16 15:24:08;;;;;;;7.25;4.97;;;;;;;7.97;77.57;101450.56;2078787;28;20273;-71
2023/04/16 15:25:13;;;;;;;8.25;5.00;;;;;;;7.95;77.47;101449.19;2079223;28;21227;-72
2023/04/16 15:26:15;;;;;;;7.50;4.90;;;;;;;7.93;77.07;101449.41;2088440;28;20332;-70
2023/04/16 15:27:18;;;;;;;6.75;5.03;;;;;;;7.87;77.08;101451.19;2103660;28;21049;-71
2023/04/16 15:28:20;;;;;;;9.68;5.63;;;;;;;7.90;77.20;101460.59;2087678;28;20316;-70
2023/04/16 15:29:22;;;;;;;10.32;5.38;;;;;;;7.92;77.03;101458.53;2074492;28;20980;-72
2023/04/16 15:30:23;;;;;;;7.35;4.88;;;;;;;7.93;77.26;101459.31;2071343;28;21061;-70
2023/04/16 15:31:30;;;;;;;7.40;4.88;;;;;;;7.93;77.58;101465.50;2087558;28;20201;-70
2023/04/16 15:32:37;;;;;;;6.95;5.00;;;;;;;7.98;77.60;101456.75;2094412;28;20268;-71
2023/04/16 15:33:43;;;;;;;7.53;4.93;;;;;;;7.95;77.64;101459.91;2084592;28;20233;-73
2023/04/16 15:34:45;;;;;;;15.20;4.90;;;;;;;7.94;77.50;101461.75;2087283;28;20303;-72
2023/04/16 15:35:47;;;;;;;7.78;4.53;;;;;;;7.93;77.47;101460.13;2094694;28;20216;-71
2023/04/16 15:36:49;;;;;;;9.13;5.20;;;;;;;7.96;77.74;101458.84;2102653;28;20299;-72
2023/04/16 15:37:51;;;;;;;7.85;4.75;;;;;;;7.93;77.44;101464.69;2076072;28;20206;-75
2023/04/16 15:38:53;;;;;;;7.13;5.05;;;;;;;7.81;77.47;101462.03;2070366;28;20218;-71
2023/04/16 15:39:57;;;;;;;7.45;4.80;;;;;;;7.82;77.23;101472.53;2079846;28;20264;-70
2023/04/16 15:41:02;;;;;;;8.18;5.07;;;;;;;7.77;77.38;101458.22;2096088;28;20201;-72
2023/04/16 15:42:10;;;;;;;8.98;5.00;;;;;;;7.74;77.41;101466.72;2079774;28;21052;-80
2023/04/16 15:43:11;;;;;;;8.02;5.05;;;;;;;7.73;77.43;101465.09;2080081;28;20224;-71
2023/04/16 15:44:15;;;;;;;8.05;4.95;;;;;;;7.76;77.27;101459.28;2079104;28;20301;-71
2023/04/16 15:45:19;;;;;;;9.20;5.43;;;;;;;7.78;77.30;101467.88;2087606;28;20237;-71
2023/04/16 15:46:21;;;;;;;6.80;4.78;;;;;;;7.84;77.53;101462.38;2096185;28;20255;-72
2023/04/16 15:47:23;;;;;;;7.10;4.75;;;;;;;7.84;77.23;101457.00;2087263;28;21029;-74
2023/04/16 15:48:28;;;;;;;7.75;4.80;;;;;;;7.82;76.99;101461.00;2076515;28;20260;-73
2023/04/16 15:49:30;;;;;;;8.25;4.95;;;;;;;7.78;76.92;101468.66;2082459;28;20820;-74
2023/04/16 15:50:34;;;;;;;6.80;4.78;;;;;;;7.78;77.25;101454.47;2086684;28;20220;-73
2023/04/16 15:51:39;;;;;;;10.00;4.88;;;;;;;7.82;77.27;101463.69;2096380;28;20240;-74
2023/04/16 15:52:41;;;;;;;6.38;4.72;;;;;;;7.79;77.37;101466.84;2094982;28;20209;-73
2023/04/16 15:53:44;;;;;;;8.60;5.05;;;;;;;7.76;77.39;101464.63;2080818;28;20288;-74
2023/04/16 15:54:51;;;;;;;7.63;4.90;;;;;;;7.75;77.21;101468.34;2079552;28;20373;-74
2023/04/16 15:55:55;;;;;;;7.95;4.60;;;;;;;7.79;77.20;101469.50;2083138;28;20320;-73
2023/04/16 15:57:00;;;;;;;7.75;4.70;;;;;;;7.77;77.28;101461.69;2095912;28;20243;-75
2023/04/16 15:58:04;;;;;;;7.25;4.88;;;;;;;7.78;77.33;101462.50;2086274;28;20252;-73
2023/04/16 15:59:06;;;;;;;9.00;4.78;;;;;;;7.81;77.47;101462.03;2083380;28;21614;-72
2023/04/16 16:00:17;;;;;;;7.75;4.93;;;;;;;7.77;77.24;101471.59;2078227;28;21568;-72
2023/04/16 16:01:21;;;;;;;7.35;4.53;;;;;;;7.69;77.46;101464.75;2088120;28;20217;-71
2023/04/16 16:02:24;;;;;;;7.15;4.82;;;;;;;7.70;77.79;101473.59;2086201;28;20201;-73
2023/04/16 16:03:32;;;;;;;10.57;4.75;;;;;;;7.66;77.80;101466.06;2091895;28;20932;-71
2023/04/16 16:04:36;;;;;;;6.80;4.85;;;;;;;7.65;77.69;101466.28;2086471;28;21426;-73
2023/04/16 16:05:41;;;;;;;7.95;4.50;;;;;;;7.68;77.70;101470.34;2090775;28;20217;-71
2023/04/16 16:06:47;;;;;;;8.30;4.88;;;;;;;7.72;78.02;101468.81;2088912;28;20311;-73
2023/04/16 16:07:51;;;;;;;8.25;4.78;;;;;;;7.66;77.98;101474.06;2088041;28;20298;-71
2023/04/16 16:08:55;;;;;;;7.65;4.70;;;;;;;7.71;77.93;101470.69;2086315;28;20222;-72
2023/04/16 16:10:01;;;;;;;8.05;5.22;;;;;;;7.70;77.84;101473.59;2090855;28;20213;-70
2023/04/16 16:11:03;;;;;;;7.40;4.68;;;;;;;7.71;78.12;101477.91;2082336;28;20266;-72
2023/04/16 16:12:05;;;;;;;7.25;4.45;;;;;;;7.72;77.79;101468.81;2078952;28;20206;-71
2023/04/16 16:13:11;;;;;;;9.07;4.82;;;;;;;7.68;77.99;101478.38;2086738;28;20200;-71
2023/04/16 16:14:18;;;;;;;6.63;4.40;;;;;;;7.58;77.95;101478.97;2093451;28;20212;-71
2023/04/16 16:15:22;;;;;;;7.00;4.60;;;;;;;7.53;78.14;101487.69;2095531;28;20768;-73
2023/04/16 16:16:25;;;;;;;7.10;4.90;;;;;;;7.37;78.52;101481.19;2094684;28;20212;-71
2023/04/16 16:17:29;;;;;;;7.75;5.00;;;;;;;7.32;79.25;101488.31;2095526;28;21100;-72
2023/04/16 16:18:35;;;;;;;15.75;7.20;;;;;;;7.37;79.46;101480.38;2082547;28;20275;-71
2023/04/16 16:19:38;;;;;;;9.07;5.40;;;;;;;7.42;79.62;101475.16;2086929;28;20230;-71
2023/04/16 16:20:40;;;;;;;8.70;5.55;;;;;;;7.44;79.40;101483.78;2092985;28;20244;-73
2023/04/16 16:21:45;;;;;;;8.50;5.35;;;;;;;7.46;78.78;101483.53;2096065;28;20300;-73
2023/04/16 16:22:55;;;;;;;13.00;6.22;;;;;;;7.40;78.79;101494.09;2103790;28;20204;-72
2023/04/16 16:23:57;;;;;;;10.20;5.30;;;;;;;7.38;78.73;101485.53;2089734;28;20229;-72
2023/04/16 16:24:59;;;;;;;10.35;5.57;;;;;;;7.40;78.67;101487.94;2088179;28;20029;-72
2023/04/16 16:26:08;;;;;;;5.80;4.20;;;;;;;7.41;78.79;101494.94;2103905;28;20998;-72
2023/04/16 16:27:14;;;;;;;6.47;4.60;;;;;;;7.38;78.62;101485.53;2103152;28;21682;-72
2023/04/16 16:28:19;;;;;;;8.80;4.63;;;;;;;7.38;78.67;101490.88;2095502;28;20217;-71
2023/04/16 16:29:26;;;;;;;8.00;4.10;;;;;;;7.41;79.08;101490.41;2086879;28;21161;-71
2023/04/16 16:30:28;;;;;;;6.32;4.40;;;;;;;7.43;78.87;101488.28;2092504;28;20216;-71
2023/04/16 16:31:29;;;;;;;9.73;4.43;;;;;;;7.44;78.93;101483.78;2096068;28;21216;-71
2023/04/16 16:32:34;;;;;;;5.85;4.10;;;;;;;7.50;78.86;101490.84;2111172;27;20284;-71
2023/04/16 16:33:36;;;;;;;7.68;4.75;;;;;;;7.50;78.44;101493.50;2099538;28;20665;-71
2023/04/16 16:34:42;;;;;;;6.25;4.30;;;;;;;7.51;78.56;101484.47;2095275;28;20350;-72
2023/04/16 16:35:44;;;;;;;7.30;4.30;;;;;;;7.57;78.45;101491.53;2095941;28;20197;-72
2023/04/16 16:36:47;;;;;;;10.27;5.68;;;;;;;7.63;78.16;101487.94;2096284;28;20272;-72
2023/04/16 16:37:54;;;;;;;9.40;4.70;;;;;;;7.68;78.21;101489.06;2103212;28;20274;-72
2023/04/16 16:38:56;;;;;;;6.32;4.25;;;;;;;7.66;77.78;101495.50;2096197;28;20236;-71
2023/04/16 16:40:06;;;;;;;7.07;4.15;;;;;;;7.61;77.55;101492.69;2087821;28;20233;-71
2023/04/16 16:41:08;;;;;;;5.88;4.20;;;;;;;7.58;77.79;101490.50;2106772;27;20188;-72
2023/04/16 16:42:10;;;;;;;5.72;4.05;;;;;;;7.57;78.00;101488.88;2111125;28;20301;-72
2023/04/16 16:43:11;;;;;;;7.50;4.53;;;;;;;7.51;77.73;101489.81;2094976;28;20248;-72
2023/04/16 16:44:14;;;;;;;5.40;4.05;;;;;;;7.51;77.95;101487.13;2094826;28;21040;-72
2023/04/16 16:45:25;;;;;;;6.85;3.85;;;;;;;7.47;77.88;101488.66;2104215;27;20242;-72
2023/04/16 16:46:31;;;;;;;5.95;3.80;;;;;;;7.50;78.21;101496.19;2103208;28;20306;-71
2023/04/16 16:47:36;;;;;;;5.45;3.95;;;;;;;7.53;78.29;101493.03;2103764;28;20204;-71
2023/04/16 16:48:38;;;;;;;6.13;4.13;;;;;;;7.52;78.05;101487.94;2083742;28;20275;-73
2023/04/16 16:49:46;;;;;;;5.32;3.28;;;;;;;7.53;77.90;101493.03;2095153;28;20271;-73
2023/04/16 16:50:48;;;;;;;4.88;3.47;;;;;;;7.53;77.57;101490.38;2112117;27;20294;-72
2023/04/16 16:51:56;;;;;;;6.38;3.72;;;;;;;7.46;77.56;101494.22;2102842;28;20324;-73
2023/04/16 16:53:02;;;;;;;5.88;4.00;;;;;;;7.48;77.91;101495.63;2105638;28;20267;-73
2023/04/16 16:54:05;;;;;;;6.72;3.92;;;;;;;7.46;77.61;101495.03;2104156;28;20212;-72
2023/04/16 16:55:10;;;;;;;6.68;4.05;;;;;;;7.44;77.58;101499.84;2093203;28;20331;-72
2023/04/16 16:56:11;;;;;;;6.03;3.88;;;;;;;7.47;77.89;101493.16;2096002;28;21436;-72
2023/04/16 16:57:19;;;;;;;5.43;3.85;;;;;;;7.52;77.72;101490.63;2096491;28;20244;-72
2023/04/16 16:58:20;;;;;;;6.68;4.40;;;;;;;7.52;78.11;101488.75;2096125;28;20213;-71
2023/04/16 16:59:25;;;;;;;5.97;4.13;;;;;;;7.51;77.97;101491.69;2104477;28;20199;-71
2023/04/16 17:00:31;;;;;;;7.72;4.00;;;;;;;7.53;77.74;101495.72;2104558;28;20314;-72
2023/04/16 17:01:37;;;;;;;6.10;3.97;;;;;;;7.48;77.80;101500.19;2088928;28;20356;-72
2023/04/16 17:02:42;;;;;;;6.05;3.95;;;;;;;7.48;78.15;101492.97;2090417;28;21086;-70
2023/04/16 17:03:46;;;;;;;8.65;4.18;;;;;;;7.50;77.86;101504.22;2086058;28;20832;-73
2023/04/16 17:04:51;;;;;;;5.85;3.65;;;;;;;7.49;77.76;101496.44;2104641;28;20286;-71
2023/04/16 17:05:54;;;;;;;5.78;3.90;;;;;;;7.42;78.04;101501.91;2097279;28;20252;-71
2023/04/16 17:06:58;;;;;;;7.47;3.80;;;;;;;7.35;77.92;101507.38;2106164;28;20311;-72
2023/04/16 17:08:03;;;;;;;7.32;4.45;;;;;;;7.26;77.90;101503.44;2105393;28;20357;-73
2023/04/16 17:09:04;;;;;;;6.82;4.25;;;;;;;7.18;78.04;101501.91;2080395;28;20222;-72
2023/04/16 17:10:07;;;;;;;7.78;4.32;;;;;;;7.18;77.82;101499.25;2090281;28;20240;-72
2023/04/16 17:11:08;;;;;;;6.50;4.25;;;;;;;7.18;77.92;101496.56;2089313;28;21189;-74
2023/04/16 17:12:15;;;;;;;6.20;3.90;;;;;;;7.14;78.37;101498.09;2106176;28;20211;-71
2023/04/16 17:13:20;;;;;;;6.20;4.05;;;;;;;7.15;78.54;101498.88;2114799;28;20362;-71
2023/04/16 17:14:24;;;;;;;8.68;4.32;;;;;;;7.19;78.53;101492.88;2113113;28;20313;-71
2023/04/16 17:15:26;;;;;;;7.07;4.32;;;;;;;7.24;78.84;101496.69;2105508;28;20234;-72
2023/04/16 17:16:30;;;;;;;8.02;3.90;;;;;;;7.27;78.92;101499.72;2088852;28;20261;-73